sensor_id;sensor_type;location;lat;lon;timestamp;P1;durP1;ratioP1;P2;durP2;ratioP2
58731;SDS011;44508;44.626;21.182;2023-02-28T00:00:01;79.45;;;50.25;;
58731;SDS011;44508;44.626;21.182;2023-02-28T00:02:34;87.22;;;57.65;;
58731;SDS011;44508;44.626;21.182;2023-02-28T00:05:00;97.72;;;64.55;;
58731;SDS011;44508;44.626;21.182;2023-02-28T00:07:28;90.80;;;62.13;;
58731;SDS011;44508;44.626;21.182;2023-02-28T00:09:55;102.00;;;60.92;;
58731;SDS011;44508;44.626;21.182;2023-02-28T00:12:21;94.50;;;58.00;;
58731;SDS011;44508;44.626;21.182;2023-02-28T00:14:48;95.00;;;61.00;;
58731;SDS011;44508;44.626;21.182;2023-02-28T00:17:14;95.03;;;59.00;;
58731;SDS011;44508;44.626;21.182;2023-02-28T00:19:41;92.43;;;57.83;;
58731;SDS011;44508;44.626;21.182;2023-02-28T00:22:07;98.00;;;61.50;;
58731;SDS011;44508;44.626;21.182;2023-02-28T00:24:33;104.22;;;64.28;;
58731;SDS011;44508;44.626;21.182;2023-02-28T00:26:59;86.78;;;55.25;;
58731;SDS011;44508;44.626;21.182;2023-02-28T00:29:25;83.00;;;51.92;;
58731;SDS011;44508;44.626;21.182;2023-02-28T00:31:51;76.90;;;49.03;;
58731;SDS011;44508;44.626;21.182;2023-02-28T00:34:17;75.00;;;45.63;;
58731;SDS011;44508;44.626;21.182;2023-02-28T00:36:43;71.13;;;44.70;;
58731;SDS011;44508;44.626;21.182;2023-02-28T00:39:11;49.45;;;31.75;;
58731;SDS011;44508;44.626;21.182;2023-02-28T00:41:37;69.88;;;40.60;;
58731;SDS011;44508;44.626;21.182;2023-02-28T00:44:03;64.80;;;38.97;;
58731;SDS011;44508;44.626;21.182;2023-02-28T00:46:29;64.68;;;40.83;;
58731;SDS011;44508;44.626;21.182;2023-02-28T00:48:55;60.58;;;37.60;;
58731;SDS011;44508;44.626;21.182;2023-02-28T00:51:21;54.28;;;33.28;;
58731;SDS011;44508;44.626;21.182;2023-02-28T00:53:47;62.60;;;38.25;;
58731;SDS011;44508;44.626;21.182;2023-02-28T00:56:14;74.47;;;45.97;;
58731;SDS011;44508;44.626;21.182;2023-02-28T00:58:40;61.80;;;39.38;;
58731;SDS011;44508;44.626;21.182;2023-02-28T01:01:06;76.95;;;45.95;;
58731;SDS011;44508;44.626;21.182;2023-02-28T01:03:32;92.88;;;54.22;;
58731;SDS011;44508;44.626;21.182;2023-02-28T01:05:58;82.22;;;48.85;;
58731;SDS011;44508;44.626;21.182;2023-02-28T01:08:24;67.85;;;42.30;;
58731;SDS011;44508;44.626;21.182;2023-02-28T01:10:51;55.22;;;35.20;;
58731;SDS011;44508;44.626;21.182;2023-02-28T01:13:17;56.38;;;36.53;;
58731;SDS011;44508;44.626;21.182;2023-02-28T01:15:45;60.05;;;37.17;;
58731;SDS011;44508;44.626;21.182;2023-02-28T01:18:14;55.20;;;34.70;;
58731;SDS011;44508;44.626;21.182;2023-02-28T01:20:40;52.42;;;34.40;;
58731;SDS011;44508;44.626;21.182;2023-02-28T01:23:07;88.13;;;47.88;;
58731;SDS011;44508;44.626;21.182;2023-02-28T01:25:36;126.57;;;71.07;;
58731;SDS011;44508;44.626;21.182;2023-02-28T01:28:02;106.90;;;62.70;;
58731;SDS011;44508;44.626;21.182;2023-02-28T01:30:28;73.20;;;46.38;;
58731;SDS011;44508;44.626;21.182;2023-02-28T01:32:54;75.60;;;48.15;;
58731;SDS011;44508;44.626;21.182;2023-02-28T01:35:20;75.57;;;46.65;;
58731;SDS011;44508;44.626;21.182;2023-02-28T01:37:46;62.72;;;40.42;;
58731;SDS011;44508;44.626;21.182;2023-02-28T01:40:12;89.22;;;57.47;;
58731;SDS011;44508;44.626;21.182;2023-02-28T01:42:38;73.38;;;44.45;;
58731;SDS011;44508;44.626;21.182;2023-02-28T01:45:22;96.20;;;54.83;;
58731;SDS011;44508;44.626;21.182;2023-02-28T01:47:49;119.97;;;67.55;;
58731;SDS011;44508;44.626;21.182;2023-02-28T01:50:19;102.10;;;58.22;;
58731;SDS011;44508;44.626;21.182;2023-02-28T01:52:46;67.18;;;45.83;;
58731;SDS011;44508;44.626;21.182;2023-02-28T01:55:13;92.88;;;61.15;;
58731;SDS011;44508;44.626;21.182;2023-02-28T01:57:45;99.75;;;57.92;;
58731;SDS011;44508;44.626;21.182;2023-02-28T02:00:16;93.05;;;57.88;;
58731;SDS011;44508;44.626;21.182;2023-02-28T02:02:43;58.25;;;38.67;;
58731;SDS011;44508;44.626;21.182;2023-02-28T02:05:15;58.08;;;40.72;;
58731;SDS011;44508;44.626;21.182;2023-02-28T02:07:42;71.80;;;46.45;;
58731;SDS011;44508;44.626;21.182;2023-02-28T02:18:13;59.13;;;39.35;;
58731;SDS011;44508;44.626;21.182;2023-02-28T02:36:33;65.05;;;44.90;;
58731;SDS011;44508;44.626;21.182;2023-02-28T02:41:46;68.57;;;44.42;;
58731;SDS011;44508;44.626;21.182;2023-02-28T02:46:47;70.63;;;47.85;;
58731;SDS011;44508;44.626;21.182;2023-02-28T02:49:28;81.63;;;55.10;;
58731;SDS011;44508;44.626;21.182;2023-02-28T02:51:56;96.00;;;62.65;;
58731;SDS011;44508;44.626;21.182;2023-02-28T02:54:24;132.00;;;78.60;;
58731;SDS011;44508;44.626;21.182;2023-02-28T02:56:53;99.03;;;58.83;;
58731;SDS011;44508;44.626;21.182;2023-02-28T02:59:21;67.75;;;43.45;;
58731;SDS011;44508;44.626;21.182;2023-02-28T03:01:50;63.22;;;42.28;;
58731;SDS011;44508;44.626;21.182;2023-02-28T03:04:19;74.28;;;47.10;;
58731;SDS011;44508;44.626;21.182;2023-02-28T03:06:45;81.97;;;51.30;;
58731;SDS011;44508;44.626;21.182;2023-02-28T03:09:11;101.47;;;61.33;;
58731;SDS011;44508;44.626;21.182;2023-02-28T03:11:38;98.28;;;58.55;;
58731;SDS011;44508;44.626;21.182;2023-02-28T03:14:15;93.97;;;56.63;;
58731;SDS011;44508;44.626;21.182;2023-02-28T03:19:30;78.05;;;51.97;;
58731;SDS011;44508;44.626;21.182;2023-02-28T03:25:18;67.25;;;43.08;;
58731;SDS011;44508;44.626;21.182;2023-02-28T03:27:39;69.72;;;43.67;;
58731;SDS011;44508;44.626;21.182;2023-02-28T03:30:10;74.00;;;45.55;;
58731;SDS011;44508;44.626;21.182;2023-02-28T03:32:40;83.35;;;50.90;;
58731;SDS011;44508;44.626;21.182;2023-02-28T03:35:14;89.88;;;54.15;;
58731;SDS011;44508;44.626;21.182;2023-02-28T03:37:47;98.68;;;58.97;;
58731;SDS011;44508;44.626;21.182;2023-02-28T03:40:15;97.00;;;58.00;;
58731;SDS011;44508;44.626;21.182;2023-02-28T03:42:43;103.60;;;59.92;;
58731;SDS011;44508;44.626;21.182;2023-02-28T03:45:32;93.90;;;58.00;;
58731;SDS011;44508;44.626;21.182;2023-02-28T03:48:19;90.25;;;55.08;;
58731;SDS011;44508;44.626;21.182;2023-02-28T03:50:43;95.50;;;59.78;;
58731;SDS011;44508;44.626;21.182;2023-02-28T03:53:44;81.40;;;52.00;;
58731;SDS011;44508;44.626;21.182;2023-02-28T04:01:07;67.32;;;43.65;;
58731;SDS011;44508;44.626;21.182;2023-02-28T04:03:34;68.35;;;44.15;;
58731;SDS011;44508;44.626;21.182;2023-02-28T04:06:00;79.43;;;51.05;;
58731;SDS011;44508;44.626;21.182;2023-02-28T04:08:27;87.53;;;53.78;;
58731;SDS011;44508;44.626;21.182;2023-02-28T04:10:58;87.13;;;54.67;;
58731;SDS011;44508;44.626;21.182;2023-02-28T04:13:26;77.65;;;51.08;;
58731;SDS011;44508;44.626;21.182;2023-02-28T04:15:52;81.85;;;50.08;;
58731;SDS011;44508;44.626;21.182;2023-02-28T04:18:18;73.88;;;46.75;;
58731;SDS011;44508;44.626;21.182;2023-02-28T04:20:44;80.53;;;50.13;;
58731;SDS011;44508;44.626;21.182;2023-02-28T04:23:10;82.55;;;50.60;;
58731;SDS011;44508;44.626;21.182;2023-02-28T04:25:36;86.43;;;52.30;;
58731;SDS011;44508;44.626;21.182;2023-02-28T04:28:05;87.88;;;52.80;;
58731;SDS011;44508;44.626;21.182;2023-02-28T04:30:31;88.57;;;53.22;;
58731;SDS011;44508;44.626;21.182;2023-02-28T04:32:57;106.05;;;60.35;;
58731;SDS011;44508;44.626;21.182;2023-02-28T04:35:23;108.15;;;63.22;;
58731;SDS011;44508;44.626;21.182;2023-02-28T04:37:49;97.18;;;57.20;;
58731;SDS011;44508;44.626;21.182;2023-02-28T04:40:15;91.25;;;54.15;;
58731;SDS011;44508;44.626;21.182;2023-02-28T04:42:42;96.32;;;56.03;;
58731;SDS011;44508;44.626;21.182;2023-02-28T04:45:08;91.93;;;54.97;;
58731;SDS011;44508;44.626;21.182;2023-02-28T04:47:35;101.57;;;60.40;;
58731;SDS011;44508;44.626;21.182;2023-02-28T04:50:01;87.80;;;52.00;;
58731;SDS011;44508;44.626;21.182;2023-02-28T04:52:28;87.43;;;52.75;;
58731;SDS011;44508;44.626;21.182;2023-02-28T04:54:54;82.20;;;50.00;;
58731;SDS011;44508;44.626;21.182;2023-02-28T04:57:20;87.57;;;51.97;;
58731;SDS011;44508;44.626;21.182;2023-02-28T04:59:46;87.57;;;52.28;;
58731;SDS011;44508;44.626;21.182;2023-02-28T05:02:13;115.50;;;68.80;;
58731;SDS011;44508;44.626;21.182;2023-02-28T05:04:39;117.55;;;70.60;;
58731;SDS011;44508;44.626;21.182;2023-02-28T05:07:05;103.93;;;62.65;;
58731;SDS011;44508;44.626;21.182;2023-02-28T05:09:31;90.78;;;56.88;;
58731;SDS011;44508;44.626;21.182;2023-02-28T05:11:58;103.57;;;59.40;;
58731;SDS011;44508;44.626;21.182;2023-02-28T05:14:24;103.68;;;60.83;;
58731;SDS011;44508;44.626;21.182;2023-02-28T05:16:50;96.82;;;59.88;;
58731;SDS011;44508;44.626;21.182;2023-02-28T05:19:16;104.25;;;60.40;;
58731;SDS011;44508;44.626;21.182;2023-02-28T05:21:54;103.55;;;57.85;;
58731;SDS011;44508;44.626;21.182;2023-02-28T05:24:20;100.07;;;59.05;;
58731;SDS011;44508;44.626;21.182;2023-02-28T05:26:51;102.10;;;59.60;;
58731;SDS011;44508;44.626;21.182;2023-02-28T05:29:17;104.70;;;58.78;;
58731;SDS011;44508;44.626;21.182;2023-02-28T05:31:44;95.20;;;55.92;;
58731;SDS011;44508;44.626;21.182;2023-02-28T05:34:10;96.45;;;55.58;;
58731;SDS011;44508;44.626;21.182;2023-02-28T05:36:38;109.53;;;63.10;;
58731;SDS011;44508;44.626;21.182;2023-02-28T05:39:07;117.63;;;66.25;;
58731;SDS011;44508;44.626;21.182;2023-02-28T05:41:37;118.00;;;64.63;;
58731;SDS011;44508;44.626;21.182;2023-02-28T05:44:03;124.00;;;68.63;;
58731;SDS011;44508;44.626;21.182;2023-02-28T05:46:29;104.10;;;60.60;;
58731;SDS011;44508;44.626;21.182;2023-02-28T05:48:55;115.30;;;69.68;;
58731;SDS011;44508;44.626;21.182;2023-02-28T05:51:24;100.65;;;60.35;;
58731;SDS011;44508;44.626;21.182;2023-02-28T05:53:50;90.18;;;54.58;;
58731;SDS011;44508;44.626;21.182;2023-02-28T05:56:16;95.10;;;56.80;;
58731;SDS011;44508;44.626;21.182;2023-02-28T05:58:42;90.70;;;55.92;;
58731;SDS011;44508;44.626;21.182;2023-02-28T06:03:47;98.65;;;62.25;;
58731;SDS011;44508;44.626;21.182;2023-02-28T06:06:13;92.15;;;58.13;;
58731;SDS011;44508;44.626;21.182;2023-02-28T06:08:39;123.35;;;72.15;;
58731;SDS011;44508;44.626;21.182;2023-02-28T06:11:08;141.98;;;82.75;;
58731;SDS011;44508;44.626;21.182;2023-02-28T06:13:34;138.88;;;83.15;;
58731;SDS011;44508;44.626;21.182;2023-02-28T06:16:01;127.70;;;77.68;;
58731;SDS011;44508;44.626;21.182;2023-02-28T06:18:27;127.13;;;77.35;;
58731;SDS011;44508;44.626;21.182;2023-02-28T06:20:53;131.75;;;79.15;;
58731;SDS011;44508;44.626;21.182;2023-02-28T06:23:20;116.85;;;73.55;;
58731;SDS011;44508;44.626;21.182;2023-02-28T06:25:46;113.07;;;71.72;;
58731;SDS011;44508;44.626;21.182;2023-02-28T06:28:12;97.85;;;62.53;;
58731;SDS011;44508;44.626;21.182;2023-02-28T06:30:39;83.68;;;54.20;;
58731;SDS011;44508;44.626;21.182;2023-02-28T06:33:05;84.13;;;53.83;;
58731;SDS011;44508;44.626;21.182;2023-02-28T06:35:31;86.55;;;54.90;;
58731;SDS011;44508;44.626;21.182;2023-02-28T06:37:57;95.35;;;59.15;;
58731;SDS011;44508;44.626;21.182;2023-02-28T06:40:23;93.75;;;55.88;;
58731;SDS011;44508;44.626;21.182;2023-02-28T06:42:49;91.22;;;54.83;;
58731;SDS011;44508;44.626;21.182;2023-02-28T06:45:15;94.60;;;57.55;;
58731;SDS011;44508;44.626;21.182;2023-02-28T06:47:41;100.38;;;59.55;;
58731;SDS011;44508;44.626;21.182;2023-02-28T06:50:09;108.85;;;62.55;;
58731;SDS011;44508;44.626;21.182;2023-02-28T06:52:36;109.13;;;64.70;;
58731;SDS011;44508;44.626;21.182;2023-02-28T06:55:03;119.50;;;66.88;;
58731;SDS011;44508;44.626;21.182;2023-02-28T06:57:30;113.07;;;65.50;;
58731;SDS011;44508;44.626;21.182;2023-02-28T06:59:59;104.20;;;62.15;;
58731;SDS011;44508;44.626;21.182;2023-02-28T07:02:26;99.10;;;61.20;;
58731;SDS011;44508;44.626;21.182;2023-02-28T07:04:52;87.40;;;54.58;;
58731;SDS011;44508;44.626;21.182;2023-02-28T07:07:18;80.50;;;51.80;;
58731;SDS011;44508;44.626;21.182;2023-02-28T07:09:44;87.28;;;54.35;;
58731;SDS011;44508;44.626;21.182;2023-02-28T07:12:10;79.25;;;49.13;;
58731;SDS011;44508;44.626;21.182;2023-02-28T07:14:36;64.07;;;41.67;;
58731;SDS011;44508;44.626;21.182;2023-02-28T07:17:03;61.67;;;39.70;;
58731;SDS011;44508;44.626;21.182;2023-02-28T07:19:29;55.22;;;37.92;;
58731;SDS011;44508;44.626;21.182;2023-02-28T07:21:55;58.60;;;39.33;;
58731;SDS011;44508;44.626;21.182;2023-02-28T07:24:21;59.15;;;40.17;;
58731;SDS011;44508;44.626;21.182;2023-02-28T07:26:50;62.28;;;41.60;;
58731;SDS011;44508;44.626;21.182;2023-02-28T07:29:16;60.30;;;42.03;;
58731;SDS011;44508;44.626;21.182;2023-02-28T07:31:42;60.72;;;41.40;;
58731;SDS011;44508;44.626;21.182;2023-02-28T07:34:08;63.08;;;42.00;;
58731;SDS011;44508;44.626;21.182;2023-02-28T07:36:34;64.70;;;43.53;;
58731;SDS011;44508;44.626;21.182;2023-02-28T07:39:00;65.40;;;42.92;;
58731;SDS011;44508;44.626;21.182;2023-02-28T07:41:27;58.03;;;40.58;;
58731;SDS011;44508;44.626;21.182;2023-02-28T07:43:54;58.90;;;40.40;;
58731;SDS011;44508;44.626;21.182;2023-02-28T07:46:22;63.92;;;42.90;;
58731;SDS011;44508;44.626;21.182;2023-02-28T07:48:48;60.15;;;39.45;;
58731;SDS011;44508;44.626;21.182;2023-02-28T07:51:14;65.32;;;42.25;;
58731;SDS011;44508;44.626;21.182;2023-02-28T07:53:40;67.88;;;44.95;;
58731;SDS011;44508;44.626;21.182;2023-02-28T07:56:07;65.18;;;44.88;;
58731;SDS011;44508;44.626;21.182;2023-02-28T07:58:33;67.72;;;42.22;;
58731;SDS011;44508;44.626;21.182;2023-02-28T08:01:06;79.20;;;50.45;;
58731;SDS011;44508;44.626;21.182;2023-02-28T08:03:32;97.18;;;61.22;;
58731;SDS011;44508;44.626;21.182;2023-02-28T08:05:58;88.15;;;58.40;;
58731;SDS011;44508;44.626;21.182;2023-02-28T08:08:24;96.07;;;62.95;;
58731;SDS011;44508;44.626;21.182;2023-02-28T08:10:54;123.00;;;77.07;;
58731;SDS011;44508;44.626;21.182;2023-02-28T08:13:20;115.45;;;74.60;;
58731;SDS011;44508;44.626;21.182;2023-02-28T08:15:46;119.47;;;78.40;;
58731;SDS011;44508;44.626;21.182;2023-02-28T08:18:12;102.10;;;61.65;;
58731;SDS011;44508;44.626;21.182;2023-02-28T08:20:38;98.10;;;61.53;;
58731;SDS011;44508;44.626;21.182;2023-02-28T08:23:04;76.57;;;50.40;;
58731;SDS011;44508;44.626;21.182;2023-02-28T08:25:30;82.57;;;54.53;;
58731;SDS011;44508;44.626;21.182;2023-02-28T08:27:56;92.38;;;58.45;;
58731;SDS011;44508;44.626;21.182;2023-02-28T08:30:22;72.85;;;49.45;;
58731;SDS011;44508;44.626;21.182;2023-02-28T08:32:48;66.85;;;45.45;;
58731;SDS011;44508;44.626;21.182;2023-02-28T08:35:14;50.83;;;37.03;;
58731;SDS011;44508;44.626;21.182;2023-02-28T08:37:40;52.97;;;36.95;;
58731;SDS011;44508;44.626;21.182;2023-02-28T08:40:07;66.13;;;46.25;;
58731;SDS011;44508;44.626;21.182;2023-02-28T08:42:33;64.35;;;42.33;;
58731;SDS011;44508;44.626;21.182;2023-02-28T08:44:59;73.88;;;45.90;;
58731;SDS011;44508;44.626;21.182;2023-02-28T08:47:25;72.85;;;48.17;;
58731;SDS011;44508;44.626;21.182;2023-02-28T08:49:51;97.32;;;68.15;;
58731;SDS011;44508;44.626;21.182;2023-02-28T08:52:17;72.70;;;46.90;;
58731;SDS011;44508;44.626;21.182;2023-02-28T08:54:43;69.82;;;47.17;;
58731;SDS011;44508;44.626;21.182;2023-02-28T08:57:09;100.65;;;61.97;;
58731;SDS011;44508;44.626;21.182;2023-02-28T08:59:35;94.40;;;58.15;;
58731;SDS011;44508;44.626;21.182;2023-02-28T09:02:01;77.30;;;50.20;;
58731;SDS011;44508;44.626;21.182;2023-02-28T09:04:28;82.90;;;53.20;;
58731;SDS011;44508;44.626;21.182;2023-02-28T09:06:55;87.05;;;54.80;;
58731;SDS011;44508;44.626;21.182;2023-02-28T09:09:21;104.95;;;60.47;;
58731;SDS011;44508;44.626;21.182;2023-02-28T09:11:47;79.50;;;52.42;;
58731;SDS011;44508;44.626;21.182;2023-02-28T09:14:13;86.88;;;54.60;;
58731;SDS011;44508;44.626;21.182;2023-02-28T09:16:42;74.60;;;51.28;;
58731;SDS011;44508;44.626;21.182;2023-02-28T09:19:10;77.43;;;48.88;;
58731;SDS011;44508;44.626;21.182;2023-02-28T09:21:37;78.10;;;50.80;;
58731;SDS011;44508;44.626;21.182;2023-02-28T09:24:03;73.78;;;50.20;;
58731;SDS011;44508;44.626;21.182;2023-02-28T09:26:29;65.20;;;43.13;;
58731;SDS011;44508;44.626;21.182;2023-02-28T09:28:55;67.22;;;44.45;;
58731;SDS011;44508;44.626;21.182;2023-02-28T09:31:24;69.80;;;47.00;;
58731;SDS011;44508;44.626;21.182;2023-02-28T09:33:51;75.53;;;47.70;;
58731;SDS011;44508;44.626;21.182;2023-02-28T09:36:18;90.85;;;55.10;;
58731;SDS011;44508;44.626;21.182;2023-02-28T09:38:44;81.00;;;51.70;;
58731;SDS011;44508;44.626;21.182;2023-02-28T09:41:15;84.68;;;54.83;;
58731;SDS011;44508;44.626;21.182;2023-02-28T09:43:44;83.78;;;51.13;;
58731;SDS011;44508;44.626;21.182;2023-02-28T09:48:46;76.85;;;50.28;;
58731;SDS011;44508;44.626;21.182;2023-02-28T09:53:39;79.85;;;53.20;;
58731;SDS011;44508;44.626;21.182;2023-02-28T09:56:13;72.18;;;48.45;;
58731;SDS011;44508;44.626;21.182;2023-02-28T10:03:43;73.90;;;48.63;;
58731;SDS011;44508;44.626;21.182;2023-02-28T10:06:15;88.72;;;54.88;;
58731;SDS011;44508;44.626;21.182;2023-02-28T10:08:45;91.60;;;56.60;;
58731;SDS011;44508;44.626;21.182;2023-02-28T10:11:16;75.15;;;47.15;;
58731;SDS011;44508;44.626;21.182;2023-02-28T10:13:57;66.15;;;43.90;;
58731;SDS011;44508;44.626;21.182;2023-02-28T10:16:29;67.82;;;42.40;;
58731;SDS011;44508;44.626;21.182;2023-02-28T10:18:59;81.00;;;50.88;;
58731;SDS011;44508;44.626;21.182;2023-02-28T10:21:30;77.15;;;49.33;;
58731;SDS011;44508;44.626;21.182;2023-02-28T10:24:03;83.80;;;51.17;;
58731;SDS011;44508;44.626;21.182;2023-02-28T10:26:30;96.57;;;55.25;;
58731;SDS011;44508;44.626;21.182;2023-02-28T10:28:56;64.40;;;43.85;;
58731;SDS011;44508;44.626;21.182;2023-02-28T10:31:22;60.67;;;39.70;;
58731;SDS011;44508;44.626;21.182;2023-02-28T10:33:48;62.03;;;42.30;;
58731;SDS011;44508;44.626;21.182;2023-02-28T10:36:16;69.63;;;44.03;;
58731;SDS011;44508;44.626;21.182;2023-02-28T10:38:43;61.85;;;40.13;;
58731;SDS011;44508;44.626;21.182;2023-02-28T10:43:36;71.60;;;41.25;;
58731;SDS011;44508;44.626;21.182;2023-02-28T10:46:04;85.38;;;51.35;;
58731;SDS011;44508;44.626;21.182;2023-02-28T10:48:39;75.05;;;46.10;;
58731;SDS011;44508;44.626;21.182;2023-02-28T10:51:08;68.55;;;41.50;;
58731;SDS011;44508;44.626;21.182;2023-02-28T10:53:38;66.65;;;43.00;;
58731;SDS011;44508;44.626;21.182;2023-02-28T10:58:48;85.03;;;53.72;;
58731;SDS011;44508;44.626;21.182;2023-02-28T11:01:16;76.85;;;50.08;;
58731;SDS011;44508;44.626;21.182;2023-02-28T11:03:42;105.05;;;64.95;;
58731;SDS011;44508;44.626;21.182;2023-02-28T11:06:13;65.80;;;43.35;;
58731;SDS011;44508;44.626;21.182;2023-02-28T11:08:50;76.20;;;51.67;;
58731;SDS011;44508;44.626;21.182;2023-02-28T11:11:17;88.53;;;54.40;;
58731;SDS011;44508;44.626;21.182;2023-02-28T11:13:44;74.93;;;48.25;;
58731;SDS011;44508;44.626;21.182;2023-02-28T11:16:12;86.57;;;54.92;;
58731;SDS011;44508;44.626;21.182;2023-02-28T11:18:43;70.35;;;47.25;;
58731;SDS011;44508;44.626;21.182;2023-02-28T11:21:15;68.50;;;45.75;;
58731;SDS011;44508;44.626;21.182;2023-02-28T11:23:42;59.70;;;39.50;;
58731;SDS011;44508;44.626;21.182;2023-02-28T11:26:08;61.45;;;41.65;;
58731;SDS011;44508;44.626;21.182;2023-02-28T11:28:37;70.10;;;47.10;;
58731;SDS011;44508;44.626;21.182;2023-02-28T11:31:05;72.70;;;50.25;;
58731;SDS011;44508;44.626;21.182;2023-02-28T11:33:46;71.13;;;45.10;;
58731;SDS011;44508;44.626;21.182;2023-02-28T11:38:42;76.05;;;51.35;;
58731;SDS011;44508;44.626;21.182;2023-02-28T11:48:54;69.35;;;46.08;;
58731;SDS011;44508;44.626;21.182;2023-02-28T11:56:36;57.67;;;37.88;;
58731;SDS011;44508;44.626;21.182;2023-02-28T12:07:14;93.28;;;56.47;;
58731;SDS011;44508;44.626;21.182;2023-02-28T12:17:33;108.78;;;67.38;;
58731;SDS011;44508;44.626;21.182;2023-02-28T12:22:37;85.78;;;57.33;;
58731;SDS011;44508;44.626;21.182;2023-02-28T12:27:39;94.07;;;57.25;;
58731;SDS011;44508;44.626;21.182;2023-02-28T12:30:13;88.15;;;53.33;;
58731;SDS011;44508;44.626;21.182;2023-02-28T12:32:41;74.70;;;44.95;;
58731;SDS011;44508;44.626;21.182;2023-02-28T12:37:38;79.68;;;48.95;;
58731;SDS011;44508;44.626;21.182;2023-02-28T12:40:11;75.28;;;46.50;;
58731;SDS011;44508;44.626;21.182;2023-02-28T12:42:39;73.80;;;47.30;;
58731;SDS011;44508;44.626;21.182;2023-02-28T12:47:34;103.35;;;58.17;;
58731;SDS011;44508;44.626;21.182;2023-02-28T12:50:02;110.38;;;62.67;;
58731;SDS011;44508;44.626;21.182;2023-02-28T12:55:16;83.57;;;51.97;;
58731;SDS011;44508;44.626;21.182;2023-02-28T13:00:19;116.97;;;73.10;;
58731;SDS011;44508;44.626;21.182;2023-02-28T13:03:10;89.85;;;50.45;;
58731;SDS011;44508;44.626;21.182;2023-02-28T13:08:36;84.25;;;50.78;;
58731;SDS011;44508;44.626;21.182;2023-02-28T13:10:56;82.18;;;48.72;;
58731;SDS011;44508;44.626;21.182;2023-02-28T13:13:25;92.85;;;54.05;;
58731;SDS011;44508;44.626;21.182;2023-02-28T13:20:57;82.28;;;47.83;;
58731;SDS011;44508;44.626;21.182;2023-02-28T13:26:08;86.15;;;49.45;;
58731;SDS011;44508;44.626;21.182;2023-02-28T13:31:19;75.65;;;44.95;;
58731;SDS011;44508;44.626;21.182;2023-02-28T13:36:31;92.18;;;51.65;;
58731;SDS011;44508;44.626;21.182;2023-02-28T13:41:43;79.97;;;46.95;;
58731;SDS011;44508;44.626;21.182;2023-02-28T13:44:22;73.35;;;43.88;;
58731;SDS011;44508;44.626;21.182;2023-02-28T13:49:18;81.45;;;50.15;;
58731;SDS011;44508;44.626;21.182;2023-02-28T13:51:46;103.40;;;62.60;;
58731;SDS011;44508;44.626;21.182;2023-02-28T14:05:22;103.20;;;60.85;;
58731;SDS011;44508;44.626;21.182;2023-02-28T14:07:56;108.18;;;60.00;;
58731;SDS011;44508;44.626;21.182;2023-02-28T14:10:26;114.55;;;64.07;;
58731;SDS011;44508;44.626;21.182;2023-02-28T14:15:27;98.25;;;56.58;;
58731;SDS011;44508;44.626;21.182;2023-02-28T14:17:55;120.38;;;66.45;;
58731;SDS011;44508;44.626;21.182;2023-02-28T14:20:22;120.85;;;68.32;;
58731;SDS011;44508;44.626;21.182;2023-02-28T14:25:23;118.95;;;68.03;;
58731;SDS011;44508;44.626;21.182;2023-02-28T14:28:03;126.22;;;72.18;;
58731;SDS011;44508;44.626;21.182;2023-02-28T14:33:21;114.18;;;65.32;;
58731;SDS011;44508;44.626;21.182;2023-02-28T14:38:24;122.20;;;68.65;;
58731;SDS011;44508;44.626;21.182;2023-02-28T14:40:52;108.53;;;61.95;;
58731;SDS011;44508;44.626;21.182;2023-02-28T14:43:24;123.28;;;71.22;;
58731;SDS011;44508;44.626;21.182;2023-02-28T14:45:51;132.85;;;73.53;;
58731;SDS011;44508;44.626;21.182;2023-02-28T14:48:18;104.03;;;60.58;;
58731;SDS011;44508;44.626;21.182;2023-02-28T14:50:49;123.20;;;70.30;;
58731;SDS011;44508;44.626;21.182;2023-02-28T14:53:18;106.60;;;59.70;;
58731;SDS011;44508;44.626;21.182;2023-02-28T14:55:46;99.20;;;55.53;;
58731;SDS011;44508;44.626;21.182;2023-02-28T14:58:29;105.90;;;58.25;;
58731;SDS011;44508;44.626;21.182;2023-02-28T15:00:56;102.60;;;55.20;;
58731;SDS011;44508;44.626;21.182;2023-02-28T15:03:36;99.30;;;54.55;;
58731;SDS011;44508;44.626;21.182;2023-02-28T15:06:03;122.32;;;65.97;;
58731;SDS011;44508;44.626;21.182;2023-02-28T15:08:30;95.47;;;53.97;;
58731;SDS011;44508;44.626;21.182;2023-02-28T15:11:21;117.22;;;67.80;;
58731;SDS011;44508;44.626;21.182;2023-02-28T15:13:53;142.88;;;78.20;;
58731;SDS011;44508;44.626;21.182;2023-02-28T15:16:25;135.35;;;70.95;;
58731;SDS011;44508;44.626;21.182;2023-02-28T15:23:54;112.28;;;61.80;;
58731;SDS011;44508;44.626;21.182;2023-02-28T15:26:22;120.57;;;66.00;;
58731;SDS011;44508;44.626;21.182;2023-02-28T15:28:51;113.07;;;61.92;;
58731;SDS011;44508;44.626;21.182;2023-02-28T15:31:28;125.95;;;67.95;;
58731;SDS011;44508;44.626;21.182;2023-02-28T15:33:56;118.47;;;63.42;;
58731;SDS011;44508;44.626;21.182;2023-02-28T15:36:26;130.45;;;70.50;;
58731;SDS011;44508;44.626;21.182;2023-02-28T15:38:54;109.70;;;62.97;;
58731;SDS011;44508;44.626;21.182;2023-02-28T15:41:24;126.38;;;66.40;;
58731;SDS011;44508;44.626;21.182;2023-02-28T15:44:13;134.15;;;72.70;;
58731;SDS011;44508;44.626;21.182;2023-02-28T15:46:37;139.65;;;78.57;;
58731;SDS011;44508;44.626;21.182;2023-02-28T15:49:03;127.97;;;67.95;;
58731;SDS011;44508;44.626;21.182;2023-02-28T15:51:32;151.52;;;84.28;;
58731;SDS011;44508;44.626;21.182;2023-02-28T15:54:00;191.63;;;107.72;;
58731;SDS011;44508;44.626;21.182;2023-02-28T15:56:27;187.32;;;101.60;;
58731;SDS011;44508;44.626;21.182;2023-02-28T15:58:55;221.68;;;120.18;;
58731;SDS011;44508;44.626;21.182;2023-02-28T16:01:25;157.07;;;83.80;;
58731;SDS011;44508;44.626;21.182;2023-02-28T16:03:53;175.90;;;92.97;;
58731;SDS011;44508;44.626;21.182;2023-02-28T16:06:36;132.25;;;75.55;;
58731;SDS011;44508;44.626;21.182;2023-02-28T16:09:03;110.53;;;63.47;;
58731;SDS011;44508;44.626;21.182;2023-02-28T16:11:33;111.40;;;63.45;;
58731;SDS011;44508;44.626;21.182;2023-02-28T16:13:59;126.68;;;73.38;;
58731;SDS011;44508;44.626;21.182;2023-02-28T16:16:25;125.97;;;73.32;;
58731;SDS011;44508;44.626;21.182;2023-02-28T16:18:52;122.28;;;71.60;;
58731;SDS011;44508;44.626;21.182;2023-02-28T16:21:18;125.18;;;68.53;;
58731;SDS011;44508;44.626;21.182;2023-02-28T16:23:44;127.90;;;72.18;;
58731;SDS011;44508;44.626;21.182;2023-02-28T16:26:21;132.52;;;77.50;;
58731;SDS011;44508;44.626;21.182;2023-02-28T16:28:47;133.07;;;77.90;;
58731;SDS011;44508;44.626;21.182;2023-02-28T16:31:14;152.68;;;88.40;;
58731;SDS011;44508;44.626;21.182;2023-02-28T16:33:41;173.93;;;102.75;;
58731;SDS011;44508;44.626;21.182;2023-02-28T16:36:19;159.63;;;88.93;;
58731;SDS011;44508;44.626;21.182;2023-02-28T16:38:45;147.73;;;78.65;;
58731;SDS011;44508;44.626;21.182;2023-02-28T16:41:12;131.13;;;69.68;;